sensor_id;sensor_type;location;lat;lon;timestamp;temperature;humidity
16846;DHT22;8539;53.188;8.696;2023-02-02T00:01:44;5.80;99.90
16846;DHT22;8539;53.188;8.696;2023-02-02T00:04:19;5.80;99.90
16846;DHT22;8539;53.188;8.696;2023-02-02T00:06:46;5.80;99.90
16846;DHT22;8539;53.188;8.696;2023-02-02T00:09:17;5.80;99.90
16846;DHT22;8539;53.188;8.696;2023-02-02T00:11:44;5.80;99.90
16846;DHT22;8539;53.188;8.696;2023-02-02T00:14:11;5.80;99.90
16846;DHT22;8539;53.188;8.696;2023-02-02T00:16:40;5.70;99.90
16846;DHT22;8539;53.188;8.696;2023-02-02T00:19:10;6.00;99.90
16846;DHT22;8539;53.188;8.696;2023-02-02T00:21:37;5.70;99.90
16846;DHT22;8539;53.188;8.696;2023-02-02T00:24:07;5.70;99.90
16846;DHT22;8539;53.188;8.696;2023-02-02T00:26:34;5.70;99.90
16846;DHT22;8539;53.188;8.696;2023-02-02T00:29:00;5.70;99.90
16846;DHT22;8539;53.188;8.696;2023-02-02T00:31:26;5.70;99.90
16846;DHT22;8539;53.188;8.696;2023-02-02T00:33:52;5.70;99.90
16846;DHT22;8539;53.188;8.696;2023-02-02T00:36:20;5.70;99.90
16846;DHT22;8539;53.188;8.696;2023-02-02T00:38:47;5.70;99.90
16846;DHT22;8539;53.188;8.696;2023-02-02T00:41:13;5.70;99.90
16846;DHT22;8539;53.188;8.696;2023-02-02T00:43:39;5.60;99.90
16846;DHT22;8539;53.188;8.696;2023-02-02T00:46:09;5.70;99.90
16846;DHT22;8539;53.188;8.696;2023-02-02T00:48:36;5.90;99.90
16846;DHT22;8539;53.188;8.696;2023-02-02T00:51:03;5.60;99.90
16846;DHT22;8539;53.188;8.696;2023-02-02T00:53:29;5.60;99.90
16846;DHT22;8539;53.188;8.696;2023-02-02T00:55:55;5.60;99.90
16846;DHT22;8539;53.188;8.696;2023-02-02T00:58:21;5.70;99.90
16846;DHT22;8539;53.188;8.696;2023-02-02T01:00:47;5.50;99.90
16846;DHT22;8539;53.188;8.696;2023-02-02T01:03:13;5.50;99.90
16846;DHT22;8539;53.188;8.696;2023-02-02T01:05:39;5.50;99.90
16846;DHT22;8539;53.188;8.696;2023-02-02T01:08:05;5.40;99.90
16846;DHT22;8539;53.188;8.696;2023-02-02T01:10:31;5.40;99.90
16846;DHT22;8539;53.188;8.696;2023-02-02T01:12:58;5.40;99.90
16846;DHT22;8539;53.188;8.696;2023-02-02T01:15:24;5.30;99.90
16846;DHT22;8539;53.188;8.696;2023-02-02T01:17:51;5.30;99.90
16846;DHT22;8539;53.188;8.696;2023-02-02T01:20:18;5.20;99.90
16846;DHT22;8539;53.188;8.696;2023-02-02T01:22:45;5.20;99.90
16846;DHT22;8539;53.188;8.696;2023-02-02T01:25:12;5.10;99.90
16846;DHT22;8539;53.188;8.696;2023-02-02T01:27:38;5.20;99.90
16846;DHT22;8539;53.188;8.696;2023-02-02T01:30:05;5.20;99.90
16846;DHT22;8539;53.188;8.696;2023-02-02T01:32:31;5.20;99.90
16846;DHT22;8539;53.188;8.696;2023-02-02T01:34:57;5.40;99.90
16846;DHT22;8539;53.188;8.696;2023-02-02T01:37:23;5.20;99.90
16846;DHT22;8539;53.188;8.696;2023-02-02T01:39:50;5.50;99.90
16846;DHT22;8539;53.188;8.696;2023-02-02T01:42:20;5.20;99.90
16846;DHT22;8539;53.188;8.696;2023-02-02T01:47:36;5.10;99.90
16846;DHT22;8539;53.188;8.696;2023-02-02T01:50:03;5.10;99.90
16846;DHT22;8539;53.188;8.696;2023-02-02T01:52:32;5.10;99.90
16846;DHT22;8539;53.188;8.696;2023-02-02T01:55:03;5.10;99.90
16846;DHT22;8539;53.188;8.696;2023-02-02T01:57:40;5.10;99.90
16846;DHT22;8539;53.188;8.696;2023-02-02T02:00:13;5.20;99.90
16846;DHT22;8539;53.188;8.696;2023-02-02T02:02:46;5.10;99.90
16846;DHT22;8539;53.188;8.696;2023-02-02T02:05:14;5.60;99.90
16846;DHT22;8539;53.188;8.696;2023-02-02T02:07:43;5.10;99.90
16846;DHT22;8539;53.188;8.696;2023-02-02T02:10:09;5.10;99.90
16846;DHT22;8539;53.188;8.696;2023-02-02T02:12:35;5.00;99.90
16846;DHT22;8539;53.188;8.696;2023-02-02T02:15:07;5.40;99.90
16846;DHT22;8539;53.188;8.696;2023-02-02T02:30:00;4.90;99.90
16846;DHT22;8539;53.188;8.696;2023-02-02T02:40:56;5.00;99.90
16846;DHT22;8539;53.188;8.696;2023-02-02T02:43:26;5.00;99.90
16846;DHT22;8539;53.188;8.696;2023-02-02T02:45:54;5.00;99.90
16846;DHT22;8539;53.188;8.696;2023-02-02T02:48:20;5.00;99.90
16846;DHT22;8539;53.188;8.696;2023-02-02T02:50:46;5.00;99.90
16846;DHT22;8539;53.188;8.696;2023-02-02T02:53:22;5.00;99.90
16846;DHT22;8539;53.188;8.696;2023-02-02T02:55:59;5.00;99.90
16846;DHT22;8539;53.188;8.696;2023-02-02T02:58:32;5.00;99.90
16846;DHT22;8539;53.188;8.696;2023-02-02T03:01:09;5.00;99.90
16846;DHT22;8539;53.188;8.696;2023-02-02T03:06:54;5.00;99.90
16846;DHT22;8539;53.188;8.696;2023-02-02T03:09:24;5.00;99.90
16846;DHT22;8539;53.188;8.696;2023-02-02T03:11:54;5.10;99.90
16846;DHT22;8539;53.188;8.696;2023-02-02T03:14:21;5.00;99.90
16846;DHT22;8539;53.188;8.696;2023-02-02T03:16:50;5.20;99.90
16846;DHT22;8539;53.188;8.696;2023-02-02T03:19:16;5.10;99.90
16846;DHT22;8539;53.188;8.696;2023-02-02T03:21:42;5.00;99.90
16846;DHT22;8539;53.188;8.696;2023-02-02T03:24:08;5.00;99.90
16846;DHT22;8539;53.188;8.696;2023-02-02T03:26:34;5.10;99.90
16846;DHT22;8539;53.188;8.696;2023-02-02T03:29:01;4.90;99.90
16846;DHT22;8539;53.188;8.696;2023-02-02T03:31:27;5.00;99.90
16846;DHT22;8539;53.188;8.696;2023-02-02T03:33:55;4.90;99.90
16846;DHT22;8539;53.188;8.696;2023-02-02T03:36:21;4.90;99.90
16846;DHT22;8539;53.188;8.696;2023-02-02T03:38:47;4.90;99.90
16846;DHT22;8539;53.188;8.696;2023-02-02T03:41:13;4.90;99.90
16846;DHT22;8539;53.188;8.696;2023-02-02T03:43:40;5.10;99.90
16846;DHT22;8539;53.188;8.696;2023-02-02T03:46:06;4.70;99.90
16846;DHT22;8539;53.188;8.696;2023-02-02T03:48:36;4.80;99.90
16846;DHT22;8539;53.188;8.696;2023-02-02T03:51:08;4.70;99.90
16846;DHT22;8539;53.188;8.696;2023-02-02T03:53:34;4.70;99.90
16846;DHT22;8539;53.188;8.696;2023-02-02T03:56:00;4.60;99.90
16846;DHT22;8539;53.188;8.696;2023-02-02T03:58:26;4.60;99.90
16846;DHT22;8539;53.188;8.696;2023-02-02T04:00:52;4.50;99.90
16846;DHT22;8539;53.188;8.696;2023-02-02T04:03:20;4.50;99.90
16846;DHT22;8539;53.188;8.696;2023-02-02T04:05:49;4.50;99.90
16846;DHT22;8539;53.188;8.696;2023-02-02T04:08:15;4.50;99.90
16846;DHT22;8539;53.188;8.696;2023-02-02T04:10:42;4.30;99.90
16846;DHT22;8539;53.188;8.696;2023-02-02T04:13:08;4.60;99.90
16846;DHT22;8539;53.188;8.696;2023-02-02T04:15:34;4.30;99.90
16846;DHT22;8539;53.188;8.696;2023-02-02T04:18:00;4.30;99.90
16846;DHT22;8539;53.188;8.696;2023-02-02T04:20:26;4.20;99.90
16846;DHT22;8539;53.188;8.696;2023-02-02T04:22:53;4.10;99.90
16846;DHT22;8539;53.188;8.696;2023-02-02T04:25:19;4.20;99.90
16846;DHT22;8539;53.188;8.696;2023-02-02T04:27:45;4.20;99.90
16846;DHT22;8539;53.188;8.696;2023-02-02T04:30:11;4.10;99.90
16846;DHT22;8539;53.188;8.696;2023-02-02T04:32:38;4.10;99.90
16846;DHT22;8539;53.188;8.696;2023-02-02T04:35:04;4.10;99.90
16846;DHT22;8539;53.188;8.696;2023-02-02T04:37:31;4.10;99.90
16846;DHT22;8539;53.188;8.696;2023-02-02T04:39:57;4.10;99.90
16846;DHT22;8539;53.188;8.696;2023-02-02T04:42:23;5.00;99.90
16846;DHT22;8539;53.188;8.696;2023-02-02T04:44:49;4.10;99.90
16846;DHT22;8539;53.188;8.696;2023-02-02T04:47:15;4.00;99.90
16846;DHT22;8539;53.188;8.696;2023-02-02T04:49:41;3.90;99.90
16846;DHT22;8539;53.188;8.696;2023-02-02T04:52:09;3.90;99.90
16846;DHT22;8539;53.188;8.696;2023-02-02T04:54:35;3.90;99.90
16846;DHT22;8539;53.188;8.696;2023-02-02T04:57:01;3.90;99.90
16846;DHT22;8539;53.188;8.696;2023-02-02T04:59:28;4.10;99.90
16846;DHT22;8539;53.188;8.696;2023-02-02T05:01:59;3.80;99.90
16846;DHT22;8539;53.188;8.696;2023-02-02T05:04:25;3.80;99.90
16846;DHT22;8539;53.188;8.696;2023-02-02T05:06:51;3.80;99.90
16846;DHT22;8539;53.188;8.696;2023-02-02T05:09:17;3.80;99.90
16846;DHT22;8539;53.188;8.696;2023-02-02T05:11:43;3.80;99.90
16846;DHT22;8539;53.188;8.696;2023-02-02T05:14:10;3.80;99.90
16846;DHT22;8539;53.188;8.696;2023-02-02T05:16:36;4.10;99.90
16846;DHT22;8539;53.188;8.696;2023-02-02T05:19:02;3.80;99.90
16846;DHT22;8539;53.188;8.696;2023-02-02T05:21:28;3.80;99.90
16846;DHT22;8539;53.188;8.696;2023-02-02T05:23:54;3.90;99.90
16846;DHT22;8539;53.188;8.696;2023-02-02T05:26:22;3.80;99.90
16846;DHT22;8539;53.188;8.696;2023-02-02T05:28:49;3.80;99.90
16846;DHT22;8539;53.188;8.696;2023-02-02T05:31:15;3.80;99.90
16846;DHT22;8539;53.188;8.696;2023-02-02T05:33:41;3.70;99.90
16846;DHT22;8539;53.188;8.696;2023-02-02T05:36:07;3.70;99.90
16846;DHT22;8539;53.188;8.696;2023-02-02T05:38:34;3.70;99.90
16846;DHT22;8539;53.188;8.696;2023-02-02T05:41:00;3.80;99.90
16846;DHT22;8539;53.188;8.696;2023-02-02T05:43:28;4.10;99.90
16846;DHT22;8539;53.188;8.696;2023-02-02T05:45:55;4.40;99.90
16846;DHT22;8539;53.188;8.696;2023-02-02T05:48:21;3.80;99.90
16846;DHT22;8539;53.188;8.696;2023-02-02T05:53:22;3.80;99.90
16846;DHT22;8539;53.188;8.696;2023-02-02T05:55:49;3.80;99.90
16846;DHT22;8539;53.188;8.696;2023-02-02T05:58:15;3.80;99.90
16846;DHT22;8539;53.188;8.696;2023-02-02T06:00:41;3.80;99.90
16846;DHT22;8539;53.188;8.696;2023-02-02T06:03:07;3.80;99.90
16846;DHT22;8539;53.188;8.696;2023-02-02T06:05:33;3.80;99.90
16846;DHT22;8539;53.188;8.696;2023-02-02T06:08:00;3.80;99.90
16846;DHT22;8539;53.188;8.696;2023-02-02T06:10:26;3.80;99.90
16846;DHT22;8539;53.188;8.696;2023-02-02T06:12:52;3.80;99.90
16846;DHT22;8539;53.188;8.696;2023-02-02T06:15:18;3.80;99.90
16846;DHT22;8539;53.188;8.696;2023-02-02T06:17:44;3.70;99.90
16846;DHT22;8539;53.188;8.696;2023-02-02T06:20:11;4.10;99.90
16846;DHT22;8539;53.188;8.696;2023-02-02T06:22:37;3.70;99.90
16846;DHT22;8539;53.188;8.696;2023-02-02T06:25:03;4.40;99.90
16846;DHT22;8539;53.188;8.696;2023-02-02T06:27:30;3.70;99.90
16846;DHT22;8539;53.188;8.696;2023-02-02T06:29:56;4.10;99.90
16846;DHT22;8539;53.188;8.696;2023-02-02T06:32:23;3.70;99.90
16846;DHT22;8539;53.188;8.696;2023-02-02T06:34:49;3.70;99.90
16846;DHT22;8539;53.188;8.696;2023-02-02T06:37:15;4.00;99.90
16846;DHT22;8539;53.188;8.696;2023-02-02T06:39:41;3.70;99.90
16846;DHT22;8539;53.188;8.696;2023-02-02T06:42:07;3.70;99.90
16846;DHT22;8539;53.188;8.696;2023-02-02T06:44:32;3.70;99.90
16846;DHT22;8539;53.188;8.696;2023-02-02T06:46:58;3.70;99.90
16846;DHT22;8539;53.188;8.696;2023-02-02T06:49:24;3.60;99.90
16846;DHT22;8539;53.188;8.696;2023-02-02T06:51:50;3.60;99.90
16846;DHT22;8539;53.188;8.696;2023-02-02T06:54:16;3.70;99.90
16846;DHT22;8539;53.188;8.696;2023-02-02T06:56:43;3.60;99.90
16846;DHT22;8539;53.188;8.696;2023-02-02T06:59:09;3.70;99.90
16846;DHT22;8539;53.188;8.696;2023-02-02T07:01:35;3.60;99.90
16846;DHT22;8539;53.188;8.696;2023-02-02T07:04:01;4.20;99.90
16846;DHT22;8539;53.188;8.696;2023-02-02T07:06:27;3.60;99.90
16846;DHT22;8539;53.188;8.696;2023-02-02T07:08:54;3.60;99.90
16846;DHT22;8539;53.188;8.696;2023-02-02T07:11:21;3.60;99.90
16846;DHT22;8539;53.188;8.696;2023-02-02T07:13:48;3.60;99.90
16846;DHT22;8539;53.188;8.696;2023-02-02T07:16:16;3.60;99.90
16846;DHT22;8539;53.188;8.696;2023-02-02T07:18:42;3.60;99.90
16846;DHT22;8539;53.188;8.696;2023-02-02T07:21:18;3.60;99.90
16846;DHT22;8539;53.188;8.696;2023-02-02T07:23:45;3.60;99.90
16846;DHT22;8539;53.188;8.696;2023-02-02T07:26:12;3.60;99.90
16846;DHT22;8539;53.188;8.696;2023-02-02T07:28:39;3.60;99.90
16846;DHT22;8539;53.188;8.696;2023-02-02T07:31:31;3.60;99.90
16846;DHT22;8539;53.188;8.696;2023-02-02T07:33:58;3.60;99.90
16846;DHT22;8539;53.188;8.696;2023-02-02T07:36:25;3.80;99.90
16846;DHT22;8539;53.188;8.696;2023-02-02T07:38:52;3.60;99.90
16846;DHT22;8539;53.188;8.696;2023-02-02T07:41:19;3.60;99.90
16846;DHT22;8539;53.188;8.696;2023-02-02T07:43:52;3.70;99.90
16846;DHT22;8539;53.188;8.696;2023-02-02T07:46:18;3.70;99.90
16846;DHT22;8539;53.188;8.696;2023-02-02T07:48:45;3.70;99.90
16846;DHT22;8539;53.188;8.696;2023-02-02T07:51:14;3.80;99.90
16846;DHT22;8539;53.188;8.696;2023-02-02T07:53:45;3.70;99.90
16846;DHT22;8539;53.188;8.696;2023-02-02T07:56:19;3.70;99.90
16846;DHT22;8539;53.188;8.696;2023-02-02T07:58:46;3.70;99.90
16846;DHT22;8539;53.188;8.696;2023-02-02T08:01:14;3.80;99.90
16846;DHT22;8539;53.188;8.696;2023-02-02T08:03:41;3.80;99.90
16846;DHT22;8539;53.188;8.696;2023-02-02T08:08:35;3.80;99.90
16846;DHT22;8539;53.188;8.696;2023-02-02T08:11:01;3.90;99.90
16846;DHT22;8539;53.188;8.696;2023-02-02T08:13:27;4.00;99.90
16846;DHT22;8539;53.188;8.696;2023-02-02T08:15:55;3.90;99.90
16846;DHT22;8539;53.188;8.696;2023-02-02T08:18:21;4.00;99.90
16846;DHT22;8539;53.188;8.696;2023-02-02T08:20:47;4.00;99.90
16846;DHT22;8539;53.188;8.696;2023-02-02T08:23:14;4.10;99.90
16846;DHT22;8539;53.188;8.696;2023-02-02T08:25:41;4.10;99.90
16846;DHT22;8539;53.188;8.696;2023-02-02T08:28:07;4.20;99.90
16846;DHT22;8539;53.188;8.696;2023-02-02T08:30:34;4.20;99.90
16846;DHT22;8539;53.188;8.696;2023-02-02T08:33:00;4.60;99.90
16846;DHT22;8539;53.188;8.696;2023-02-02T08:35:26;4.40;99.90
16846;DHT22;8539;53.188;8.696;2023-02-02T08:37:52;4.40;99.90
16846;DHT22;8539;53.188;8.696;2023-02-02T08:40:18;4.40;99.90
16846;DHT22;8539;53.188;8.696;2023-02-02T08:42:44;4.50;99.90
16846;DHT22;8539;53.188;8.696;2023-02-02T08:45:12;4.50;99.90
16846;DHT22;8539;53.188;8.696;2023-02-02T08:47:38;4.60;99.90
16846;DHT22;8539;53.188;8.696;2023-02-02T08:50:05;4.60;99.90
16846;DHT22;8539;53.188;8.696;2023-02-02T08:52:31;4.70;99.90
16846;DHT22;8539;53.188;8.696;2023-02-02T08:54:57;4.80;99.90
16846;DHT22;8539;53.188;8.696;2023-02-02T08:57:23;5.10;99.90
16846;DHT22;8539;53.188;8.696;2023-02-02T08:59:49;4.90;99.90
16846;DHT22;8539;53.188;8.696;2023-02-02T09:02:15;5.00;99.90
16846;DHT22;8539;53.188;8.696;2023-02-02T09:04:43;5.00;99.90
16846;DHT22;8539;53.188;8.696;2023-02-02T09:07:10;5.10;99.90
16846;DHT22;8539;53.188;8.696;2023-02-02T09:09:36;5.10;99.90
16846;DHT22;8539;53.188;8.696;2023-02-02T09:12:02;5.30;99.90
16846;DHT22;8539;53.188;8.696;2023-02-02T09:14:28;5.30;99.90
16846;DHT22;8539;53.188;8.696;2023-02-02T09:16:54;5.30;99.90
16846;DHT22;8539;53.188;8.696;2023-02-02T09:19:20;5.40;99.90
16846;DHT22;8539;53.188;8.696;2023-02-02T09:21:48;5.50;99.90
16846;DHT22;8539;53.188;8.696;2023-02-02T09:24:15;5.60;99.90
16846;DHT22;8539;53.188;8.696;2023-02-02T09:26:42;5.70;99.90
16846;DHT22;8539;53.188;8.696;2023-02-02T09:29:15;5.80;99.90
16846;DHT22;8539;53.188;8.696;2023-02-02T09:31:43;5.80;99.90
16846;DHT22;8539;53.188;8.696;2023-02-02T09:34:11;5.90;99.90
16846;DHT22;8539;53.188;8.696;2023-02-02T09:36:38;5.90;99.90
16846;DHT22;8539;53.188;8.696;2023-02-02T09:39:05;6.00;99.90
16846;DHT22;8539;53.188;8.696;2023-02-02T09:44:20;6.20;99.90
16846;DHT22;8539;53.188;8.696;2023-02-02T09:52:37;6.60;99.90
16846;DHT22;8539;53.188;8.696;2023-02-02T09:55:39;6.50;99.90
16846;DHT22;8539;53.188;8.696;2023-02-02T10:01:03;6.60;99.90
16846;DHT22;8539;53.188;8.696;2023-02-02T10:04:28;6.70;99.90
16846;DHT22;8539;53.188;8.696;2023-02-02T10:06:37;6.80;99.90
16846;DHT22;8539;53.188;8.696;2023-02-02T10:14:42;7.20;99.90
16846;DHT22;8539;53.188;8.696;2023-02-02T10:17:36;7.40;99.90
16846;DHT22;8539;53.188;8.696;2023-02-02T10:23:31;7.90;99.90
16846;DHT22;8539;53.188;8.696;2023-02-02T10:31:00;9.10;99.90
16846;DHT22;8539;53.188;8.696;2023-02-02T10:36:02;9.50;99.90
16846;DHT22;8539;53.188;8.696;2023-02-02T10:41:30;9.70;99.90
16846;DHT22;8539;53.188;8.696;2023-02-02T10:46:49;10.30;99.90
16846;DHT22;8539;53.188;8.696;2023-02-02T10:49:35;10.60;99.90
16846;DHT22;8539;53.188;8.696;2023-02-02T11:00:40;9.80;99.90
16846;DHT22;8539;53.188;8.696;2023-02-02T11:03:13;9.50;99.90
16846;DHT22;8539;53.188;8.696;2023-02-02T11:05:40;9.30;99.90
16846;DHT22;8539;53.188;8.696;2023-02-02T11:11:24;9.20;99.90
16846;DHT22;8539;53.188;8.696;2023-02-02T11:13:58;9.40;99.90
16846;DHT22;8539;53.188;8.696;2023-02-02T11:16:30;9.60;99.90
16846;DHT22;8539;53.188;8.696;2023-02-02T11:18:57;9.90;99.90
16846;DHT22;8539;53.188;8.696;2023-02-02T11:21:25;10.00;99.90
16846;DHT22;8539;53.188;8.696;2023-02-02T11:26:23;10.10;99.90
16846;DHT22;8539;53.188;8.696;2023-02-02T11:28:54;9.90;99.90
16846;DHT22;8539;53.188;8.696;2023-02-02T11:34:24;9.70;99.90
16846;DHT22;8539;53.188;8.696;2023-02-02T11:37:20;9.80;99.90
16846;DHT22;8539;53.188;8.696;2023-02-02T11:39:46;10.00;99.90
16846;DHT22;8539;53.188;8.696;2023-02-02T11:42:22;10.10;99.90
16846;DHT22;8539;53.188;8.696;2023-02-02T11:44:57;10.30;99.90
16846;DHT22;8539;53.188;8.696;2023-02-02T11:47:27;10.50;99.90
16846;DHT22;8539;53.188;8.696;2023-02-02T11:49:55;10.50;99.90
16846;DHT22;8539;53.188;8.696;2023-02-02T11:52:24;10.50;99.90
16846;DHT22;8539;53.188;8.696;2023-02-02T11:54:54;10.30;99.90
16846;DHT22;8539;53.188;8.696;2023-02-02T11:57:22;10.30;99.90
16846;DHT22;8539;53.188;8.696;2023-02-02T11:59:51;10.40;99.90
16846;DHT22;8539;53.188;8.696;2023-02-02T12:02:31;10.60;99.90
16846;DHT22;8539;53.188;8.696;2023-02-02T12:07:35;10.80;99.90
16846;DHT22;8539;53.188;8.696;2023-02-02T12:10:27;10.70;99.90
16846;DHT22;8539;53.188;8.696;2023-02-02T12:13:15;10.50;99.90
16846;DHT22;8539;53.188;8.696;2023-02-02T12:16:16;10.10;99.90
16846;DHT22;8539;53.188;8.696;2023-02-02T12:24:48;9.30;99.90
16846;DHT22;8539;53.188;8.696;2023-02-02T12:27:38;9.10;99.90
16846;DHT22;8539;53.188;8.696;2023-02-02T12:30:20;8.90;99.90
16846;DHT22;8539;53.188;8.696;2023-02-02T12:38:13;8.70;99.90
16846;DHT22;8539;53.188;8.696;2023-02-02T12:43:41;8.60;99.90
16846;DHT22;8539;53.188;8.696;2023-02-02T12:46:40;8.60;99.90
16846;DHT22;8539;53.188;8.696;2023-02-02T12:49:17;8.70;99.90
16846;DHT22;8539;53.188;8.696;2023-02-02T12:52:00;8.70;99.90
16846;DHT22;8539;53.188;8.696;2023-02-02T12:54:45;8.80;99.90
16846;DHT22;8539;53.188;8.696;2023-02-02T12:57:31;8.90;99.90
16846;DHT22;8539;53.188;8.696;2023-02-02T13:03:08;9.00;99.90
16846;DHT22;8539;53.188;8.696;2023-02-02T13:08:41;9.00;99.90
16846;DHT22;8539;53.188;8.696;2023-02-02T13:12:06;9.00;99.90
16846;DHT22;8539;53.188;8.696;2023-02-02T13:14:28;8.90;99.90
16846;DHT22;8539;53.188;8.696;2023-02-02T13:17:04;8.90;99.90
16846;DHT22;8539;53.188;8.696;2023-02-02T13:19:37;9.00;99.90
16846;DHT22;8539;53.188;8.696;2023-02-02T13:22:09;8.90;99.90
16846;DHT22;8539;53.188;8.696;2023-02-02T13:24:40;8.90;99.90
16846;DHT22;8539;53.188;8.696;2023-02-02T13:27:09;8.90;99.90
16846;DHT22;8539;53.188;8.696;2023-02-02T13:29:46;8.90;99.90
16846;DHT22;8539;53.188;8.696;2023-02-02T13:32:29;8.90;99.90
16846;DHT22;8539;53.188;8.696;2023-02-02T13:35:22;8.80;99.90
16846;DHT22;8539;53.188;8.696;2023-02-02T13:40:41;8.80;99.90
16846;DHT22;8539;53.188;8.696;2023-02-02T14:00:29;8.70;99.90
16846;DHT22;8539;53.188;8.696;2023-02-02T14:02:58;8.70;99.90
16846;DHT22;8539;53.188;8.696;2023-02-02T14:13:21;8.50;99.90
16846;DHT22;8539;53.188;8.696;2023-02-02T14:16:18;8.50;99.90
16846;DHT22;8539;53.188;8.696;2023-02-02T14:34:42;8.60;99.90
16846;DHT22;8539;53.188;8.696;2023-02-02T14:45:48;8.20;99.90
16846;DHT22;8539;53.188;8.696;2023-02-02T14:48:35;8.30;99.90
16846;DHT22;8539;53.188;8.696;2023-02-02T14:51:21;8.10;99.90
16846;DHT22;8539;53.188;8.696;2023-02-02T14:53:51;8.00;99.90
16846;DHT22;8539;53.188;8.696;2023-02-02T14:56:18;8.00;99.90
16846;DHT22;8539;53.188;8.696;2023-02-02T15:06:40;7.80;99.90
16846;DHT22;8539;53.188;8.696;2023-02-02T15:14:49;7.70;99.90
16846;DHT22;8539;53.188;8.696;2023-02-02T15:34:23;7.30;99.90
16846;DHT22;8539;53.188;8.696;2023-02-02T15:36:51;7.30;99.90
16846;DHT22;8539;53.188;8.696;2023-02-02T15:39:41;7.30;99.90
16846;DHT22;8539;53.188;8.696;2023-02-02T15:42:24;7.20;99.90
16846;DHT22;8539;53.188;8.696;2023-02-02T15:45:36;7.20;99.90
16846;DHT22;8539;53.188;8.696;2023-02-02T15:48:18;7.10;99.90
16846;DHT22;8539;53.188;8.696;2023-02-02T15:50:45;7.10;99.90
16846;DHT22;8539;53.188;8.696;2023-02-02T15:53:26;7.10;99.90
16846;DHT22;8539;53.188;8.696;2023-02-02T15:55:54;7.00;99.90
16846;DHT22;8539;53.188;8.696;2023-02-02T15:58:26;7.00;99.90
16846;DHT22;8539;53.188;8.696;2023-02-02T16:01:02;7.00;99.90
16846;DHT22;8539;53.188;8.696;2023-02-02T16:06:20;7.00;99.90
16846;DHT22;8539;53.188;8.696;2023-02-02T16:08:48;6.90;99.90
16846;DHT22;8539;53.188;8.696;2023-02-02T16:11:16;7.00;99.90
16846;DHT22;8539;53.188;8.696;2023-02-02T16:16:35;6.90;99.90
16846;DHT22;8539;53.188;8.696;2023-02-02T16:19:22;6.80;99.90
16846;DHT22;8539;53.188;8.696;2023-02-02T16:21:59;6.80;99.90
16846;DHT22;8539;53.188;8.696;2023-02-02T16:24:32;6.80;99.90
16846;DHT22;8539;53.188;8.696;2023-02-02T16:27:01;6.80;99.90
16846;DHT22;8539;53.188;8.696;2023-02-02T16:29:29;6.80;99.90
16846;DHT22;8539;53.188;8.696;2023-02-02T16:31:56;6.70;99.90
16846;DHT22;8539;53.188;8.696;2023-02-02T16:37:26;6.70;99.90
16846;DHT22;8539;53.188;8.696;2023-02-02T16:40:26;6.70;99.90
16846;DHT22;8539;53.188;8.696;2023-02-02T16:43:16;6.70;99.90
16846;DHT22;8539;53.188;8.696;2023-02-02T16:45:49;6.60;99.90
16846;DHT22;8539;53.188;8.696;2023-02-02T16:48:34;6.60;99.90
16846;DHT22;8539;53.188;8.696;2023-02-02T16:51:22;6.60;99.90
16846;DHT22;8539;53.188;8.696;2023-02-02T16:56:50;6.50;99.90
16846;DHT22;8539;53.188;8.696;2023-02-02T16:59:22;6.40;99.90
16846;DHT22;8539;53.188;8.696;2023-02-02T17:01:52;6.40;99.90
16846;DHT22;8539;53.188;8.696;2023-02-02T17:04:25;6.50;99.90
16846;DHT22;8539;53.188;8.696;2023-02-02T17:06:52;6.40;99.90
16846;DHT22;8539;53.188;8.696;2023-02-02T17:11:57;6.30;99.90
16846;DHT22;8539;53.188;8.696;2023-02-02T17:14:33;6.20;99.90
16846;DHT22;8539;53.188;8.696;2023-02-02T17:17:03;6.30;99.90
16846;DHT22;8539;53.188;8.696;2023-02-02T17:19:30;6.20;99.90
16846;DHT22;8539;53.188;8.696;2023-02-02T17:21:59;6.20;99.90
16846;DHT22;8539;53.188;8.696;2023-02-02T17:24:26;6.10;99.90
16846;DHT22;8539;53.188;8.696;2023-02-02T17:26:52;6.10;99.90
16846;DHT22;8539;53.188;8.696;2023-02-02T17:29:19;6.10;99.90
16846;DHT22;8539;53.188;8.696;2023-02-02T17:31:45;6.10;99.90
16846;DHT22;8539;53.188;8.696;2023-02-02T17:34:12;6.10;99.90
16846;DHT22;8539;53.188;8.696;2023-02-02T17:36:42;6.10;99.90
16846;DHT22;8539;53.188;8.696;2023-02-02T17:39:08;6.00;99.90
16846;DHT22;8539;53.188;8.696;2023-02-02T17:41:35;5.90;99.90
16846;DHT22;8539;53.188;8.696;2023-02-02T17:44:01;6.00;99.90
16846;DHT22;8539;53.188;8.696;2023-02-02T17:46:31;5.80;99.90
16846;DHT22;8539;53.188;8.696;2023-02-02T17:48:58;5.90;99.90
16846;DHT22;8539;53.188;8.696;2023-02-02T17:51:24;5.80;99.90
16846;DHT22;8539;53.188;8.696;2023-02-02T17:53:50;5.80;99.90
16846;DHT22;8539;53.188;8.696;2023-02-02T17:56:17;5.80;99.90
16846;DHT22;8539;53.188;8.696;2023-02-02T17:58:45;5.80;99.90
16846;DHT22;8539;53.188;8.696;2023-02-02T18:01:11;5.80;99.90
16846;DHT22;8539;53.188;8.696;2023-02-02T18:03:39;5.70;99.90
16846;DHT22;8539;53.188;8.696;2023-02-02T18:06:05;5.70;99.90
16846;DHT22;8539;53.188;8.696;2023-02-02T18:08:32;5.60;99.90
16846;DHT22;8539;53.188;8.696;2023-02-02T18:10:59;5.60;99.90
16846;DHT22;8539;53.188;8.696;2023-02-02T18:13:26;5.60;99.90
16846;DHT22;8539;53.188;8.696;2023-02-02T18:15:53;5.60;99.90
16846;DHT22;8539;53.188;8.696;2023-02-02T18:18:21;5.50;99.90
16846;DHT22;8539;53.188;8.696;2023-02-02T18:20:49;5.50;99.90
16846;DHT22;8539;53.188;8.696;2023-02-02T18:23:16;5.50;99.90
16846;DHT22;8539;53.188;8.696;2023-02-02T18:25:43;5.50;99.90
16846;DHT22;8539;53.188;8.696;2023-02-02T18:28:09;5.40;99.90
16846;DHT22;8539;53.188;8.696;2023-02-02T18:30:39;5.50;99.90
16846;DHT22;8539;53.188;8.696;2023-02-02T18:33:09;5.50;99.90
16846;DHT22;8539;53.188;8.696;2023-02-02T18:35:43;5.80;99.90
16846;DHT22;8539;53.188;8.696;2023-02-02T18:38:09;5.40;99.90
16846;DHT22;8539;53.188;8.696;2023-02-02T18:40:35;5.40;99.90
16846;DHT22;8539;53.188;8.696;2023-02-02T18:43:01;5.40;99.90
16846;DHT22;8539;53.188;8.696;2023-02-02T18:45:27;5.40;99.90
16846;DHT22;8539;53.188;8.696;2023-02-02T18:47:53;5.30;99.90
16846;DHT22;8539;53.188;8.696;2023-02-02T18:50:19;5.70;99.90
16846;DHT22;8539;53.188;8.696;2023-02-02T18:52:47;5.40;99.90
16846;DHT22;8539;53.188;8.696;2023-02-02T18:55:12;5.30;99.90
16846;DHT22;8539;53.188;8.696;2023-02-02T18:57:38;5.30;99.90
16846;DHT22;8539;53.188;8.696;2023-02-02T19:00:05;5.30;99.90
16846;DHT22;8539;53.188;8.696;2023-02-02T19:02:31;5.30;99.90
16846;DHT22;8539;53.188;8.696;2023-02-02T19:04:57;5.30;99.90
16846;DHT22;8539;53.188;8.696;2023-02-02T19:07:41;5.30;99.90
16846;DHT22;8539;53.188;8.696;2023-02-02T19:10:21;5.30;99.90
16846;DHT22;8539;53.188;8.696;2023-02-02T19:13:19;5.30;99.90
16846;DHT22;8539;53.188;8.696;2023-02-02T19:15:46;5.30;99.90
16846;DHT22;8539;53.188;8.696;2023-02-02T19:18:18;5.20;99.90
16846;DHT22;8539;53.188;8.696;2023-02-02T19:20:45;5.20;99.90
16846;DHT22;8539;53.188;8.696;2023-02-02T19:23:15;5.20;99.90
16846;DHT22;8539;53.188;8.696;2023-02-02T19:25:44;5.20;99.90
16846;DHT22;8539;53.188;8.696;2023-02-02T19:30:52;5.20;99.90
16846;DHT22;8539;53.188;8.696;2023-02-02T19:33:36;5.20;99.90
16846;DHT22;8539;53.188;8.696;2023-02-02T19:36:04;5.20;99.90
16846;DHT22;8539;53.188;8.696;2023-02-02T19:38:30;5.20;99.90
16846;DHT22;8539;53.188;8.696;2023-02-02T19:40:59;5.30;99.90
16846;DHT22;8539;53.188;8.696;2023-02-02T19:43:27;5.20;99.90
16846;DHT22;8539;53.188;8.696;2023-02-02T19:45:55;5.20;99.90